This is the latest recevied weather packets stored in our database for station/object IZ1BLA-10. If no packets are shown the sender has not sent any weather packets the latest 10 day(s).
| Time | Temp. | Humidity | Pressure | Rain* | Wind** | Luminosity | Snow |
|---|---|---|---|---|---|---|---|
| 1777427941 | 13.89° C | 75% | 1016.3 hPa | - | - | - | - |
| 1777427340 | 13.33° C | 77% | 1016.4 hPa | - | - | - | - |
| 1777426740 | 11.67° C | 89% | 1016.7 hPa | - | - | - | - |
| 1777426140 | 12.78° C | 81% | 1016.4 hPa | - | - | - | - |
| 1777425540 | 13.33° C | 79% | 1016.1 hPa | - | - | - | - |
| 1777424940 | 13.33° C | 77% | 1016.1 hPa | - | - | - | - |
| 1777424339 | 12.78° C | 79% | 1016.3 hPa | - | - | - | - |
| 1777423739 | 13.33° C | 76% | 1016.3 hPa | - | - | - | - |
| 1777423140 | 15° C | 70% | 1015.7 hPa | - | - | - | - |
| 1777422539 | 13.33° C | 77% | 1016.2 hPa | - | - | - | - |
| 1777421940 | 14.44° C | 70% | 1015.9 hPa | - | - | - | - |
| 1777421339 | 15° C | 68% | 1015.8 hPa | - | - | - | - |
| 1777420739 | 12.78° C | 79% | 1016.4 hPa | - | - | - | - |
| 1777420139 | 12.78° C | 77% | 1016.4 hPa | - | - | - | - |
| 1777419539 | 13.89° C | 73% | 1016.3 hPa | - | - | - | - |
| 1777418940 | 12.78° C | 77% | 1016.7 hPa | - | - | - | - |
| 1777418339 | 15° C | 68% | 1016.1 hPa | - | - | - | - |
| 1777417740 | 15° C | 68% | 1016 hPa | - | - | - | - |
| 1777417139 | 14.44° C | 71% | 1016.1 hPa | - | - | - | - |
| 1777416539 | 13.89° C | 74% | 1016.1 hPa | - | - | - | - |
| 1777415939 | 12.78° C | 79% | 1016.4 hPa | - | - | - | - |
| 1777415339 | 13.33° C | 78% | 1016.1 hPa | - | - | - | - |
| 1777414739 | 13.33° C | 79% | 1016.1 hPa | - | - | - | - |
| 1777414139 | 12.22° C | 84% | 1016.4 hPa | - | - | - | - |
| 1777413540 | 12.22° C | 85% | 1016.3 hPa | - | - | - | - |
* Rain since midnight (hover to see other rain measurements)
** Current wind speed in m/s (hover to see current wind gust speed)